Time;durP1;ratioP1;P1;durP2;ratioP2;P2;SDS_P1;SDS_P2;PMS_P1;PMS_P2;Temp;Humidity;BMP_temperature;BMP_pressure;BME280_temperature;BME280_humidity;BME280_pressure;Samples;Min_cycle;Max_cycle;Signal;HPM_P1;HPM_P2
2023/10/24 00:02:06;;;;;;;7.20;5.90;;;;;;;9.03;85.51;99313.43;107309;1257;72091;-36
2023/10/24 00:04:34;;;;;;;7.60;6.00;;;;;;;9.01;85.71;99315.01;107256;1257;67589;-36
2023/10/24 00:07:01;;;;;;;8.40;6.50;;;;;;;8.96;85.90;99315.27;107244;1257;72669;-37
2023/10/24 00:09:29;;;;;;;8.70;6.10;;;;;;;8.95;85.86;99311.93;107260;1257;61707;-36
2023/10/24 00:11:56;;;;;;;9.30;6.00;;;;;;;8.95;85.82;99313.56;107270;1257;59320;-36
2023/10/24 00:14:24;;;;;;;9.10;6.30;;;;;;;8.97;85.71;99316.01;107285;1257;72637;-36
2023/10/24 00:16:51;;;;;;;9.20;6.60;;;;;;;8.95;85.78;99316.80;107230;1257;66276;-37
2023/10/24 00:19:19;;;;;;;13.10;6.90;;;;;;;8.92;86.01;99318.17;107269;1257;72657;-36
2023/10/24 00:21:47;;;;;;;9.10;6.00;;;;;;;8.93;85.95;99321.15;107207;1257;60548;-36
2023/10/24 00:24:14;;;;;;;7.30;6.20;;;;;;;8.96;85.74;99323.30;107241;1257;60482;-36
2023/10/24 00:26:42;;;;;;;7.90;6.20;;;;;;;8.94;85.51;99321.89;107239;1257;73829;-36
2023/10/24 00:29:09;;;;;;;8.80;6.70;;;;;;;8.88;85.44;99323.58;107282;1257;67625;-37
2023/10/24 00:31:39;;;;;;;8.20;6.50;;;;;;;8.82;85.56;99325.02;107221;1257;72458;-36
2023/10/24 00:34:08;;;;;;;13.10;6.30;;;;;;;8.81;85.48;99324.86;107229;1257;61718;-36
2023/10/24 00:36:39;;;;;;;9.40;6.60;;;;;;;8.83;85.33;99326.31;107213;1257;60392;-36
2023/10/24 00:39:08;;;;;;;10.70;7.10;;;;;;;8.80;85.40;99329.11;107601;1252;73851;-35
2023/10/24 00:41:36;;;;;;;9.30;7.50;;;;;;;8.76;85.55;99327.89;107579;1257;66615;-37
2023/10/24 00:44:06;;;;;;;9.60;6.80;;;;;;;8.71;85.67;99324.09;107573;1253;72721;-37
2023/10/24 00:46:34;;;;;;;;;;;;;;;8.70;85.55;99323.45;107602;1256;61656;-37
2023/10/24 00:49:02;;;;;;;10.60;6.20;;;;;;;8.72;85.64;99324.94;107465;1254;60514;-36
2023/10/24 00:51:30;;;;;;;9.20;7.30;;;;;;;8.71;85.68;99322.77;107580;1252;72963;-36
2023/10/24 00:53:58;;;;;;;9.50;7.60;;;;;;;8.69;85.89;99323.34;107589;1254;68312;-36
2023/10/24 00:56:25;;;;;;;10.70;7.20;;;;;;;8.66;85.85;99326.34;107586;1253;72657;-36
2023/10/24 00:58:53;;;;;;;8.50;6.60;;;;;;;8.63;85.99;99324.18;107494;1254;61723;-35
2023/10/24 01:01:20;;;;;;;8.60;7.00;;;;;;;8.64;85.95;99321.57;107563;1253;60285;-36
2023/10/24 01:03:49;;;;;;;12.90;6.90;;;;;;;8.62;85.86;99321.67;107567;1253;72575;-36
2023/10/24 01:06:17;;;;;;;10.70;7.30;;;;;;;8.61;85.86;99319.41;107579;1253;67731;-37
2023/10/24 01:08:44;;;;;;;10.80;6.90;;;;;;;8.58;86.04;99314.55;107345;1260;72787;-36
2023/10/24 01:11:12;;;;;;;11.40;7.30;;;;;;;8.55;86.29;99315.41;107590;1254;60119;-36
2023/10/24 01:13:40;;;;;;;10.50;7.40;;;;;;;8.55;86.27;99314.88;107590;1254;59827;-36
2023/10/24 01:16:07;;;;;;;9.20;6.70;;;;;;;8.58;86.17;99320.02;107588;1257;73838;-36
2023/10/24 01:18:35;;;;;;;10.40;7.20;;;;;;;8.59;86.12;99320.36;107673;1254;67550;-36
2023/10/24 01:21:04;;;;;;;9.30;7.60;;;;;;;8.56;86.10;99322.75;107599;1253;71048;-36
2023/10/24 01:23:32;;;;;;;9.40;7.20;;;;;;;8.53;86.28;99322.98;107605;1253;60473;-36
2023/10/24 01:26:00;;;;;;;10.10;7.60;;;;;;;8.53;86.16;99325.52;107504;1254;60399;-36
2023/10/24 01:28:28;;;;;;;9.30;7.60;;;;;;;8.55;85.86;99324.19;107574;1253;73873;-35
2023/10/24 01:30:56;;;;;;;10.60;7.40;;;;;;;8.52;85.71;99320.49;107659;1252;67927;-36
2023/10/24 01:33:24;;;;;;;9.70;7.90;;;;;;;8.47;85.94;99318.83;107581;1253;71749;-36
2023/10/24 01:35:51;;;;;;;9.10;6.90;;;;;;;8.43;86.01;99321.33;107652;1254;61547;-37
2023/10/24 01:38:19;;;;;;;11.20;7.80;;;;;;;8.42;85.92;99322.71;107585;1252;60296;-36
2023/10/24 01:40:46;;;;;;;9.30;7.60;;;;;;;8.42;85.97;99325.77;107591;1252;72875;-36
2023/10/24 01:43:14;;;;;;;11.90;8.10;;;;;;;8.43;85.99;99324.56;107600;1253;67562;-37
2023/10/24 01:45:41;;;;;;;11.40;8.60;;;;;;;8.42;86.14;99328.63;107587;1257;72672;-37
2023/10/24 01:48:09;;;;;;;12.00;8.60;;;;;;;8.39;86.24;99330.55;107504;1254;60406;-37
2023/10/24 01:50:36;;;;;;;12.60;8.30;;;;;;;8.37;86.25;99330.35;107619;1256;59364;-37
2023/10/24 01:53:04;;;;;;;17.00;8.70;;;;;;;8.38;86.05;99334.70;107598;1254;73856;-37
2023/10/24 01:55:32;;;;;;;11.40;8.30;;;;;;;8.39;85.91;99334.67;107576;1254;66795;-37
2023/10/24 01:57:59;;;;;;;15.50;9.00;;;;;;;8.37;85.80;99330.20;107494;1253;71397;-36
2023/10/24 02:00:27;;;;;;;12.80;9.00;;;;;;;8.31;85.99;99327.58;107485;1254;60501;-37
2023/10/24 02:02:55;;;;;;;11.00;8.90;;;;;;;8.28;86.15;99328.31;107560;1254;60478;-37
2023/10/24 02:05:22;;;;;;;9.90;7.90;;;;;;;8.28;85.90;99328.38;107551;1252;73856;-36
2023/10/24 02:07:50;;;;;;;10.80;8.20;;;;;;;8.27;85.78;99329.00;107577;1253;66615;-36
2023/10/24 02:10:17;;;;;;;11.80;9.10;;;;;;;8.27;85.91;99326.52;107553;1254;72668;-37
2023/10/24 02:12:46;;;;;;;11.80;9.40;;;;;;;8.23;85.87;99320.30;107592;1254;59722;-37
2023/10/24 02:15:14;;;;;;;17.40;9.30;;;;;;;8.20;85.93;99320.39;107611;1253;60352;-36
2023/10/24 02:17:41;;;;;;;12.60;8.50;;;;;;;8.22;85.69;99327.47;107497;1254;74010;-37
2023/10/24 02:20:10;;;;;;;11.00;8.40;;;;;;;8.28;85.44;99330.08;107604;1253;67603;-36
2023/10/24 02:22:38;;;;;;;11.90;8.60;;;;;;;8.26;85.32;99334.30;107626;1254;72411;-37
2023/10/24 02:25:08;;;;;;;11.90;9.50;;;;;;;8.22;85.29;99339.58;107555;1253;60787;-37
2023/10/24 02:27:38;;;;;;;11.80;9.40;;;;;;;8.15;85.35;99346.02;107600;1252;60163;-36
2023/10/24 02:30:06;;;;;;;12.30;10.10;;;;;;;8.08;85.18;99358.40;107530;1253;73842;-37
2023/10/24 02:32:34;;;;;;;11.80;9.50;;;;;;;8.02;85.17;99357.29;107611;1254;66455;-37
2023/10/24 02:35:01;;;;;;;12.90;9.70;;;;;;;7.95;85.33;99363.70;107602;1254;72652;-36
2023/10/24 02:37:29;;;;;;;13.10;10.20;;;;;;;7.84;85.76;99361.16;107590;1254;60430;-36
2023/10/24 02:39:57;;;;;;;13.60;10.80;;;;;;;7.74;86.30;99364.65;107588;1254;60409;-36
2023/10/24 02:42:24;;;;;;;14.10;10.80;;;;;;;7.72;86.76;99365.97;107586;1254;73070;-36
2023/10/24 02:44:52;;;;;;;13.40;10.70;;;;;;;7.73;87.14;99364.85;107586;1253;66622;-36
2023/10/24 02:47:19;;;;;;;15.10;11.20;;;;;;;7.73;87.45;99365.67;107576;1257;72668;-36
2023/10/24 02:49:47;;;;;;;14.50;11.50;;;;;;;7.69;87.72;99365.92;107651;1254;60444;-36
2023/10/24 02:52:16;;;;;;;15.80;11.00;;;;;;;7.65;88.08;99370.61;107586;1253;60281;-37
2023/10/24 02:54:43;;;;;;;18.10;11.60;;;;;;;7.66;88.12;99367.85;107570;1254;73838;-36
2023/10/24 02:57:11;;;;;;;15.40;11.50;;;;;;;7.69;88.02;99364.88;107621;1254;67624;-36
2023/10/24 02:59:39;;;;;;;14.60;11.70;;;;;;;7.69;88.17;99358.23;107574;1253;71463;-37
2023/10/24 03:02:07;;;;;;;16.60;12.20;;;;;;;7.68;88.55;99359.98;107596;1254;60377;-36
2023/10/24 03:04:35;;;;;;;15.50;12.00;;;;;;;7.67;88.73;99363.73;107595;1253;60405;-37
2023/10/24 03:07:03;;;;;;;14.60;11.10;;;;;;;7.72;88.49;99360.20;107606;1256;72030;-36
2023/10/24 03:09:31;;;;;;;14.20;10.80;;;;;;;7.77;88.21;99355.86;107601;1254;66314;-36
2023/10/24 03:11:58;;;;;;;15.00;12.00;;;;;;;7.79;88.22;99354.69;107622;1253;72725;-36
2023/10/24 03:14:26;;;;;;;18.00;12.90;;;;;;;7.76;88.26;99351.73;107737;1254;60396;-36
2023/10/24 03:16:54;;;;;;;16.80;12.60;;;;;;;7.73;88.34;99353.52;107563;1252;60720;-36
2023/10/24 03:19:22;;;;;;;10.00;8.70;;;;;;;7.77;88.11;99352.38;107551;1252;73521;-36
2023/10/24 03:21:51;;;;;;;15.30;11.40;;;;;;;7.83;87.83;99351.02;107600;1253;66407;-36
2023/10/24 03:24:19;;;;;;;14.80;11.80;;;;;;;7.84;87.85;99351.20;107584;1254;72535;-37
2023/10/24 03:26:46;;;;;;;15.30;12.00;;;;;;;7.82;88.04;99353.86;107573;1254;61027;-37
2023/10/24 03:29:15;;;;;;;17.50;12.00;;;;;;;7.82;88.05;99351.70;107571;1252;60438;-36
2023/10/24 03:31:42;;;;;;;15.40;11.20;;;;;;;7.90;87.80;99354.31;107561;1252;72613;-36
2023/10/24 03:34:10;;;;;;;14.20;10.90;;;;;;;7.97;87.36;99350.42;107591;1254;67748;-37
2023/10/24 03:36:38;;;;;;;17.00;11.40;;;;;;;7.99;87.14;99351.34;107548;1253;72773;-36
2023/10/24 03:39:05;;;;;;;15.10;12.70;;;;;;;7.97;86.80;99351.77;107540;1254;60280;-37
2023/10/24 03:41:33;;;;;;;16.90;11.60;;;;;;;7.97;86.65;99350.80;107542;1253;60437;-37
2023/10/24 03:44:01;;;;;;;13.50;11.20;;;;;;;8.01;86.22;99348.39;107536;1252;73846;-36
2023/10/24 03:46:28;;;;;;;15.20;11.20;;;;;;;8.05;85.59;99350.95;107562;1254;66825;-36
2023/10/24 03:48:57;;;;;;;15.10;11.60;;;;;;;8.02;85.73;99349.27;107517;1254;72096;-37
2023/10/24 03:51:24;;;;;;;15.30;11.70;;;;;;;8.00;85.98;99352.43;107555;1254;60508;-36
2023/10/24 03:53:53;;;;;;;15.40;10.80;;;;;;;7.97;85.90;99349.19;107559;1252;60033;-36
2023/10/24 03:56:20;;;;;;;15.40;10.80;;;;;;;7.97;85.46;99348.80;107559;1256;73884;-37
2023/10/24 03:58:48;;;;;;;15.40;10.80;;;;;;;8.01;84.94;99344.54;107574;1254;67879;-36
2023/10/24 04:01:15;;;;;;;14.00;11.10;;;;;;;8.01;84.54;99341.30;107557;1254;71510;-36
2023/10/24 04:03:43;;;;;;;13.20;10.70;;;;;;;8.00;84.58;99343.72;107542;1256;60175;-35
2023/10/24 04:06:11;;;;;;;15.10;11.40;;;;;;;7.97;84.54;99338.64;107565;1254;60325;-37
2023/10/24 04:08:39;;;;;;;12.80;10.00;;;;;;;8.00;84.20;99340.88;107569;1253;73799;-36
2023/10/24 04:11:14;;;;;;;11.30;10.00;;;;;;;8.06;83.79;99339.59;107601;1253;67644;-36
2023/10/24 04:13:42;;;;;;;14.30;10.70;;;;;;;8.07;83.44;99345.02;107605;1254;72682;-36
2023/10/24 04:16:10;;;;;;;14.70;11.60;;;;;;;8.05;83.12;99345.05;107565;1253;60315;-36
2023/10/24 04:18:41;;;;;;;16.70;11.50;;;;;;;8.02;82.89;99354.80;107590;1253;60398;-36
2023/10/24 04:21:09;;;;;;;13.90;11.10;;;;;;;7.98;83.20;99355.84;107569;1253;72597;-37
2023/10/24 04:23:36;;;;;;;13.80;10.50;;;;;;;7.99;83.22;99358.52;107587;1256;67164;-35
2023/10/24 04:26:05;;;;;;;13.80;10.90;;;;;;;8.04;83.10;99358.25;107600;1254;71460;-36
2023/10/24 04:28:33;;;;;;;17.10;11.40;;;;;;;8.01;83.16;99361.65;107566;1254;60431;-37
2023/10/24 04:31:01;;;;;;;13.20;10.90;;;;;;;7.99;82.99;99365.22;107577;1253;60391;-36
2023/10/24 04:33:30;;;;;;;13.20;10.80;;;;;;;7.97;82.67;99352.60;107580;1257;73799;-36
2023/10/24 04:35:58;;;;;;;12.90;9.60;;;;;;;7.96;82.18;99361.67;107541;1254;67568;-36
2023/10/24 04:38:25;;;;;;;12.30;9.20;;;;;;;7.99;81.34;99361.52;107566;1252;72759;-36
2023/10/24 04:40:53;;;;;;;12.90;9.80;;;;;;;8.02;80.47;99366.23;107587;1256;60306;-37
2023/10/24 04:43:21;;;;;;;14.10;9.70;;;;;;;7.99;79.82;99374.46;107559;1254;60304;-37
2023/10/24 04:45:50;;;;;;;14.30;9.90;;;;;;;7.90;79.00;99377.20;107575;1254;73836;-37
2023/10/24 04:48:18;;;;;;;15.70;10.10;;;;;;;7.78;78.84;99380.88;107538;1254;67651;-37
2023/10/24 04:50:45;;;;;;;20.80;10.40;;;;;;;7.67;78.91;99380.30;107573;1254;72780;-37
2023/10/24 04:53:13;;;;;;;18.10;9.70;;;;;;;7.60;79.45;99380.85;107593;1254;60461;-37
2023/10/24 04:55:42;;;;;;;14.50;10.00;;;;;;;7.61;79.59;99388.13;107556;1253;60290;-37
2023/10/24 04:58:10;;;;;;;21.40;11.30;;;;;;;7.62;79.55;99393.41;107592;1254;73832;-37
2023/10/24 05:00:38;;;;;;;14.80;11.60;;;;;;;7.58;79.79;99393.04;107614;1254;67595;-37
2023/10/24 05:03:05;;;;;;;15.30;11.60;;;;;;;7.51;80.40;99392.81;107562;1256;72721;-37
2023/10/24 05:05:33;;;;;;;14.80;12.00;;;;;;;7.47;80.98;99390.98;107575;1254;60319;-37
2023/10/24 05:08:06;;;;;;;15.20;11.20;;;;;;;7.48;81.55;99390.59;107597;1254;60431;-37
2023/10/24 05:10:34;;;;;;;15.10;11.40;;;;;;;7.59;81.95;99390.61;107626;1253;72658;-37
2023/10/24 05:13:01;;;;;;;15.70;11.10;;;;;;;7.70;82.07;99391.66;107612;1254;67596;-37
2023/10/24 05:15:29;;;;;;;11.80;9.90;;;;;;;7.77;82.22;99393.19;107587;1254;72766;-37
2023/10/24 05:17:56;;;;;;;14.50;11.40;;;;;;;7.83;82.34;99391.51;107620;1254;60405;-37
2023/10/24 05:20:24;;;;;;;14.10;10.90;;;;;;;7.85;82.29;99397.52;107610;1254;60300;-37
2023/10/24 05:22:52;;;;;;;13.40;10.70;;;;;;;7.90;82.42;99401.14;107664;1254;73867;-37
2023/10/24 05:25:20;;;;;;;13.50;11.30;;;;;;;8.02;82.23;99409.26;107589;1254;67563;-36
2023/10/24 05:27:47;;;;;;;14.30;12.00;;;;;;;8.09;81.99;99418.13;107587;1254;72458;-37
2023/10/24 05:30:15;;;;;;;15.50;12.70;;;;;;;8.03;82.18;99421.95;107584;1254;60500;-37
2023/10/24 05:32:43;;;;;;;16.40;12.70;;;;;;;7.93;82.74;99414.50;107578;1253;60283;-37
2023/10/24 05:35:11;;;;;;;16.60;12.10;;;;;;;7.92;83.33;99410.42;107611;1254;73869;-37
2023/10/24 05:37:39;;;;;;;14.20;12.30;;;;;;;8.01;83.77;99413.26;107613;1254;67889;-37
2023/10/24 05:40:07;;;;;;;14.30;11.90;;;;;;;8.14;83.91;99417.10;107613;1253;72664;-37
2023/10/24 05:42:36;;;;;;;19.20;13.80;;;;;;;8.19;84.29;99419.11;107672;1254;60418;-37
2023/10/24 05:45:07;;;;;;;16.50;13.00;;;;;;;8.21;84.76;99418.55;107621;1253;60303;-37
2023/10/24 05:47:34;;;;;;;16.30;13.00;;;;;;;8.21;85.14;99421.36;107649;1254;73828;-37
2023/10/24 05:50:02;;;;;;;16.30;12.90;;;;;;;8.26;85.25;99423.04;107586;1254;67544;-37
2023/10/24 05:52:29;;;;;;;18.30;13.90;;;;;;;8.35;85.42;99420.50;107615;1254;72233;-37
2023/10/24 05:54:58;;;;;;;13.40;9.90;;;;;;;8.37;85.82;99428.54;107606;1254;60457;-37
2023/10/24 05:57:28;;;;;;;20.00;14.10;;;;;;;8.35;86.13;99428.40;107606;1256;60565;-37
2023/10/24 05:59:56;;;;;;;19.30;14.50;;;;;;;8.34;86.43;99426.96;107491;1254;73889;-37
2023/10/24 06:02:23;;;;;;;16.40;13.30;;;;;;;8.40;86.51;99422.98;107636;1254;67646;-37
2023/10/24 06:04:51;;;;;;;15.10;13.50;;;;;;;8.47;86.45;99422.17;107568;1254;72687;-37
2023/10/24 06:07:19;;;;;;;18.60;13.90;;;;;;;8.49;86.52;99424.70;107589;1254;60095;-37
2023/10/24 06:09:46;;;;;;;19.20;14.00;;;;;;;8.49;86.86;99424.23;107591;1254;60079;-37
2023/10/24 06:12:14;;;;;;;16.30;13.20;;;;;;;8.52;87.29;99428.02;107594;1252;72568;-37
2023/10/24 06:14:41;;;;;;;16.40;12.90;;;;;;;8.62;87.54;99430.30;107580;1254;67039;-37
2023/10/24 06:17:11;;;;;;;22.20;13.00;;;;;;;8.70;87.35;99430.85;107598;1254;72695;-37
2023/10/24 06:19:40;;;;;;;22.70;15.10;;;;;;;8.76;87.58;99434.41;107610;1254;60527;-36
2023/10/24 06:22:09;;;;;;;;;;;;;;;8.78;87.90;99434.98;107632;1254;61189;-37
2023/10/24 06:24:36;;;;;;;18.40;14.10;;;;;;;8.79;87.86;99436.94;107758;1252;72849;-37
2023/10/24 06:27:04;;;;;;;18.00;14.00;;;;;;;8.86;88.01;99432.42;107569;1254;66617;-37
2023/10/24 06:29:32;;;;;;;15.70;13.00;;;;;;;8.96;88.10;99429.83;107578;1254;71499;-36
2023/10/24 06:32:00;;;;;;;14.40;12.10;;;;;;;9.01;87.95;99431.13;107583;1254;60385;-37
2023/10/24 06:34:27;;;;;;;15.00;12.30;;;;;;;9.00;88.04;99433.13;107598;1253;60448;-37
2023/10/24 06:36:56;;;;;;;13.50;11.10;;;;;;;9.00;88.02;99428.25;107585;1254;72804;-37
2023/10/24 06:39:24;;;;;;;17.70;10.90;;;;;;;9.08;87.71;99434.03;107606;1254;67862;-37
2023/10/24 06:41:55;;;;;;;13.00;10.70;;;;;;;9.17;87.59;99435.56;107618;1254;72751;-37
2023/10/24 06:44:25;;;;;;;12.00;10.50;;;;;;;9.21;87.73;99438.13;107592;1254;60562;-37
2023/10/24 06:46:53;;;;;;;13.40;11.10;;;;;;;9.22;87.99;99439.00;107601;1253;59539;-37
2023/10/24 06:49:20;;;;;;;12.90;10.60;;;;;;;9.23;87.84;99442.97;107584;1254;73877;-37
2023/10/24 06:51:50;;;;;;;13.50;9.50;;;;;;;9.28;87.35;99437.77;107590;1259;67602;-37
2023/10/24 06:54:17;;;;;;;11.30;10.10;;;;;;;9.32;87.26;99441.79;107629;1254;72762;-37
2023/10/24 06:56:46;;;;;;;14.30;11.00;;;;;;;9.33;87.45;99440.13;107639;1254;60184;-38
2023/10/24 06:59:13;;;;;;;11.40;10.20;;;;;;;9.35;87.66;99441.50;107541;1251;60414;-37
2023/10/24 07:01:41;;;;;;;11.60;9.30;;;;;;;9.38;87.89;99442.36;107666;1251;73840;-37
2023/10/24 07:04:09;;;;;;;20.40;9.60;;;;;;;9.48;87.68;99446.30;107626;1251;67563;-37
2023/10/24 07:06:36;;;;;;;11.90;9.60;;;;;;;9.56;87.23;99450.45;107685;1251;71364;-37
2023/10/24 07:09:04;;;;;;;11.40;9.50;;;;;;;9.58;86.97;99445.48;107645;1254;60404;-37
2023/10/24 07:11:31;;;;;;;14.20;11.20;;;;;;;9.58;87.03;99440.61;107614;1257;60299;-37
2023/10/24 07:13:59;;;;;;;12.00;10.50;;;;;;;9.61;87.07;99447.94;107627;1256;73043;-37
2023/10/24 07:16:27;;;;;;;12.00;9.60;;;;;;;9.70;86.80;99449.93;107676;1251;66972;-37
2023/10/24 07:18:54;;;;;;;9.70;8.70;;;;;;;9.80;86.91;99449.40;107615;1251;72687;-37
2023/10/24 07:21:22;;;;;;;11.70;9.50;;;;;;;9.88;87.02;99447.17;107633;1251;60338;-37
2023/10/24 07:23:50;;;;;;;13.20;10.90;;;;;;;9.94;86.48;99449.87;107714;1251;60270;-37
2023/10/24 07:26:18;;;;;;;10.20;8.30;;;;;;;10.00;86.21;99449.95;107624;1251;72554;-37
2023/10/24 07:28:46;;;;;;;11.80;8.00;;;;;;;10.14;85.93;99445.67;107636;1251;67577;-37
2023/10/24 07:31:14;;;;;;;10.50;8.00;;;;;;;10.28;85.46;99446.08;107656;1251;72641;-37
2023/10/24 07:33:46;;;;;;;12.50;8.30;;;;;;;10.36;84.36;99446.63;107650;1254;60482;-37
2023/10/24 07:36:14;;;;;;;11.60;8.30;;;;;;;10.41;83.77;99445.96;107698;1251;59617;-37
2023/10/24 07:38:43;;;;;;;9.60;7.80;;;;;;;10.48;83.27;99444.10;107636;1251;74316;-37
2023/10/24 07:41:11;;;;;;;12.00;7.80;;;;;;;10.60;82.87;99444.57;107630;1251;67562;-37
2023/10/24 07:43:38;;;;;;;10.20;7.10;;;;;;;10.76;81.91;99444.81;107688;1252;71528;-37
2023/10/24 07:46:06;;;;;;;9.10;7.30;;;;;;;10.84;81.04;99452.73;107656;1251;60363;-37
2023/10/24 07:48:33;;;;;;;10.00;6.80;;;;;;;10.92;80.33;99454.33;107668;1251;60530;-37
2023/10/24 07:51:03;;;;;;;9.00;6.80;;;;;;;11.00;78.98;99452.70;107633;1251;73896;-37
2023/10/24 07:53:34;;;;;;;6.90;5.90;;;;;;;11.11;77.98;99453.21;107648;1257;67602;-37
2023/10/24 07:56:03;;;;;;;7.00;6.20;;;;;;;11.21;77.65;99449.60;107626;1254;72688;-38
2023/10/24 07:58:30;;;;;;;7.00;6.20;;;;;;;11.30;77.51;99451.92;107605;1254;60537;-37
2023/10/24 08:00:58;;;;;;;7.20;6.10;;;;;;;11.37;77.17;99451.57;107621;1253;60406;-37
2023/10/24 08:03:28;;;;;;;8.30;6.50;;;;;;;11.45;76.67;99453.48;107624;1254;73772;-37
2023/10/24 08:05:55;;;;;;;7.30;5.50;;;;;;;11.52;75.73;99456.64;107625;1252;68371;-37
2023/10/24 08:08:23;;;;;;;8.50;5.60;;;;;;;11.63;74.69;99454.40;107607;1257;72765;-37
2023/10/24 08:10:51;;;;;;;8.40;6.10;;;;;;;11.73;74.40;99453.35;107577;1254;60421;-37
2023/10/24 08:13:18;;;;;;;7.10;5.50;;;;;;;11.79;73.94;99455.15;107486;1254;166471;-37
2023/10/24 08:16:46;;;;;;;10.80;7.00;;;;;;;11.86;74.17;99455.10;104333;1290;600234;-37
2023/10/24 08:19:14;;;;;;;9.40;6.00;;;;;;;11.94;74.28;99460.65;106655;1264;59340;-36
2023/10/24 08:21:42;;;;;;;10.70;6.30;;;;;;;12.03;74.07;99457.39;106647;1264;60003;-36
2023/10/24 08:24:09;;;;;;;10.70;8.10;;;;;;;12.17;73.03;99452.54;106618;1264;72214;-36
2023/10/24 08:26:37;;;;;;;9.70;7.90;;;;;;;12.30;70.78;99457.91;106669;1264;66530;-36
2023/10/24 08:29:04;;;;;;;11.80;6.90;;;;;;;12.35;70.31;99458.05;106628;1263;71405;-36
2023/10/24 08:31:34;;;;;;;7.90;6.60;;;;;;;12.37;69.99;99455.77;106765;1264;142705;-36
2023/10/24 08:34:22;;;;;;;10.30;6.60;;;;;;;12.43;69.68;99457.63;106919;1261;59266;-36
2023/10/24 08:36:49;;;;;;;7.80;5.90;;;;;;;12.48;68.48;99456.83;106885;1261;70970;-37
2023/10/24 08:39:17;;;;;;;11.30;5.10;;;;;;;12.51;67.92;99459.43;106868;1261;66446;-37
2023/10/24 08:41:47;;;;;;;9.60;5.80;;;;;;;12.63;68.46;99458.64;106844;1261;72670;-37
2023/10/24 08:44:15;;;;;;;7.40;5.70;;;;;;;12.77;68.42;99457.48;106906;1261;60099;-37
2023/10/24 08:46:43;;;;;;;8.30;5.30;;;;;;;12.86;67.31;99460.85;106911;1261;60102;-37
2023/10/24 08:49:11;;;;;;;9.40;5.10;;;;;;;12.94;67.94;99462.97;106865;1261;73072;-36
2023/10/24 08:51:39;;;;;;;7.50;5.10;;;;;;;13.04;68.12;99462.22;106871;1261;66877;-37
2023/10/24 08:54:07;;;;;;;7.90;5.90;;;;;;;13.14;66.98;99461.34;107052;1263;72659;-36
2023/10/24 08:56:35;;;;;;;6.40;5.70;;;;;;;13.17;65.39;99456.45;107035;1258;60022;-36
2023/10/24 08:59:08;;;;;;;6.80;5.50;;;;;;;13.23;65.54;99460.50;107038;1258;60067;-37
2023/10/24 09:01:35;;;;;;;6.90;5.70;;;;;;;13.33;65.66;99462.77;107036;1258;73044;-37
2023/10/24 09:04:04;;;;;;;8.40;6.20;;;;;;;13.39;65.73;99463.13;107274;1254;67755;-37
2023/10/24 09:06:31;;;;;;;10.70;7.20;;;;;;;13.45;65.51;99466.84;107295;1254;72642;-36
2023/10/24 09:08:59;;;;;;;8.00;6.20;;;;;;;13.47;64.50;99462.52;107312;1260;60130;-36
2023/10/24 09:11:59;;;;;;;9.10;7.90;;;;;;;13.47;64.11;99462.66;107298;1254;60066;-36
2023/10/24 09:14:30;;;;;;;10.50;6.80;;;;;;;13.45;64.89;99461.80;107230;1260;73112;-36
2023/10/24 09:17:18;;;;;;;9.30;6.90;;;;;;;13.44;64.47;99456.89;107235;1254;67978;-36
2023/10/24 09:19:46;;;;;;;9.10;6.60;;;;;;;13.51;63.91;99459.11;107207;1256;72691;-36
2023/10/24 09:22:17;;;;;;;7.30;6.30;;;;;;;13.55;64.29;99456.59;107219;1254;59685;-37
2023/10/24 09:24:45;;;;;;;7.90;5.80;;;;;;;13.60;64.64;99452.19;107287;1254;59592;-36
2023/10/24 09:27:14;;;;;;;7.60;5.90;;;;;;;13.69;64.82;99455.37;107324;1254;73064;-36
2023/10/24 09:29:42;;;;;;;6.40;5.40;;;;;;;13.80;63.43;99446.20;107294;1257;67557;-36
2023/10/24 09:32:15;;;;;;;7.30;5.60;;;;;;;13.89;61.92;99447.11;107298;1258;72753;-37
2023/10/24 09:34:44;;;;;;;6.60;5.00;;;;;;;13.96;61.64;99440.70;107288;1257;60152;-37
2023/10/24 09:37:16;;;;;;;7.60;5.30;;;;;;;14.05;61.52;99434.36;107370;1254;59567;-37
2023/10/24 09:39:54;;;;;;;9.50;5.30;;;;;;;14.15;61.41;99428.42;107338;1254;73059;-36
2023/10/24 09:42:25;;;;;;;7.00;4.80;;;;;;;14.28;60.67;99428.27;107300;1257;67556;-37
2023/10/24 09:45:05;;;;;;;8.00;5.50;;;;;;;14.38;60.10;99431.06;107298;1257;72771;-36
2023/10/24 09:47:33;;;;;;;5.90;4.60;;;;;;;14.43;59.95;99427.13;107301;1254;59646;-36
2023/10/24 09:50:02;;;;;;;5.30;4.40;;;;;;;14.49;59.44;99421.45;107285;1254;60027;-36
2023/10/24 09:52:30;;;;;;;4.10;3.60;;;;;;;14.58;58.26;99415.40;107285;1254;73016;-36
2023/10/24 09:54:58;;;;;;;4.90;3.90;;;;;;;14.64;57.11;99416.52;107289;1254;66744;-37
2023/10/24 09:57:26;;;;;;;6.20;3.60;;;;;;;14.67;56.11;99412.08;107295;1255;72736;-37
2023/10/24 09:59:57;;;;;;;4.80;3.60;;;;;;;14.69;56.46;99407.48;107250;1257;60140;-37
2023/10/24 10:02:25;;;;;;;4.80;4.30;;;;;;;14.71;56.82;99413.35;107167;1255;60047;-37
2023/10/24 10:04:53;;;;;;;6.90;4.70;;;;;;;14.66;56.58;99410.13;107453;1254;73128;-36
2023/10/24 10:07:21;;;;;;;5.00;4.00;;;;;;;14.53;55.89;99411.25;107415;1254;67552;-36
2023/10/24 10:09:53;;;;;;;4.40;3.60;;;;;;;14.41;56.67;99411.83;107282;1254;72715;-36
2023/10/24 10:12:21;;;;;;;4.80;3.50;;;;;;;14.33;55.82;99412.70;107444;1257;59850;-37
2023/10/24 10:15:36;;;;;;;5.20;3.40;;;;;;;14.31;56.25;99407.95;107472;1260;59786;-36
2023/10/24 10:18:19;;;;;;;5.40;3.00;;;;;;;14.40;56.10;99412.21;107399;1260;73168;-36
2023/10/24 10:20:59;;;;;;;3.70;2.60;;;;;;;14.55;54.79;99413.53;107374;1254;67782;-36
2023/10/24 10:23:30;;;;;;;;;;;;;;;14.72;54.49;99415.69;107389;1254;73315;-36
2023/10/24 10:25:59;;;;;;;4.10;3.00;;;;;;;14.86;53.56;99410.58;107390;1254;60059;-36
2023/10/24 10:28:45;;;;;;;5.20;2.90;;;;;;;14.95;52.97;99411.60;107430;1254;60018;-36
2023/10/24 10:31:28;;;;;;;5.50;2.90;;;;;;;14.96;51.97;99410.91;107408;1254;73033;-37
2023/10/24 10:34:16;;;;;;;3.00;2.70;;;;;;;14.90;51.65;99403.24;107405;1254;66765;-37
2023/10/24 10:36:53;;;;;;;4.20;3.20;;;;;;;14.86;51.82;99400.60;107377;1254;72736;-36
2023/10/24 10:39:21;;;;;;;3.90;2.90;;;;;;;14.89;51.99;99386.80;107362;1257;59614;-37
2023/10/24 10:41:49;;;;;;;5.50;3.50;;;;;;;14.94;51.95;99375.58;107385;1254;59454;-37
2023/10/24 10:44:44;;;;;;;3.40;2.60;;;;;;;15.01;52.25;99375.50;107407;1254;72930;-37
2023/10/24 10:47:13;;;;;;;3.60;2.70;;;;;;;15.11;51.54;99373.41;107413;1254;67541;-36
2023/10/24 10:49:44;;;;;;;3.00;2.70;;;;;;;15.20;50.88;99370.14;107401;1256;71542;-37
2023/10/24 10:52:39;;;;;;;3.40;2.50;;;;;;;15.30;50.36;99370.38;107439;1255;60065;-37
2023/10/24 10:55:10;;;;;;;4.80;3.00;;;;;;;15.42;50.50;99368.66;107432;1254;59608;-36
2023/10/24 10:57:47;;;;;;;4.20;2.50;;;;;;;15.55;49.82;99364.38;107411;1254;72214;-36
2023/10/24 11:00:15;;;;;;;3.00;2.40;;;;;;;15.68;49.35;99361.95;107437;1260;68087;-36
2023/10/24 11:03:01;;;;;;;3.20;2.20;;;;;;;15.82;50.05;99359.25;107310;1254;72785;-36
2023/10/24 11:05:35;;;;;;;4.00;2.70;;;;;;;15.98;49.54;99352.96;107642;1251;59694;-38
2023/10/24 11:08:04;;;;;;;4.30;3.10;;;;;;;16.13;49.50;99352.84;107607;1251;60119;-37
2023/10/24 11:10:55;;;;;;;3.40;3.00;;;;;;;16.28;49.25;99353.01;107697;1251;73135;-37
2023/10/24 11:13:32;;;;;;;3.00;2.40;;;;;;;16.42;47.34;99353.19;107601;1251;67555;-37
2023/10/24 11:16:02;;;;;;;3.70;2.60;;;;;;;16.47;46.29;99352.45;107585;1254;72729;-35
2023/10/24 11:18:31;;;;;;;3.40;2.70;;;;;;;16.47;46.55;99346.75;107485;1259;59635;-37
2023/10/24 11:20:59;;;;;;;3.20;2.70;;;;;;;16.51;46.31;99343.52;107493;1258;59734;-37
2023/10/24 11:23:27;;;;;;;7.50;3.10;;;;;;;16.54;45.93;99338.19;107475;1253;72238;-36
2023/10/24 11:25:55;;;;;;;3.90;2.80;;;;;;;16.57;46.15;99339.66;107463;1259;67725;-37
2023/10/24 11:28:24;;;;;;;3.50;2.80;;;;;;;16.62;45.94;99335.43;107479;1253;72661;-36
2023/10/24 11:30:53;;;;;;;;;;;;;;;16.68;45.31;99332.58;107433;1253;60175;-36
2023/10/24 11:33:21;;;;;;;3.70;2.60;;;;;;;16.75;45.65;99335.90;107532;1253;59813;-37
2023/10/24 11:35:49;;;;;;;4.70;2.90;;;;;;;16.88;45.85;99327.67;107446;1253;73371;-36